Time;durP1;ratioP1;P1;durP2;ratioP2;P2;SDS_P1;SDS_P2;PMS_P1;PMS_P2;Temp;Humidity;BMP_temperature;BMP_pressure;BME280_temperature;BME280_humidity;BME280_pressure;Samples;Min_cycle;Max_cycle;Signal;HPM_P1;HPM_P2
2024/01/09 00:00:42;;;;;;;1035.03;926.58;;;-1.70;99.90;;;;;;4985640;28;20405;-84
2024/01/09 00:03:08;;;;;;;1076.32;951.00;;;-2.70;99.90;;;;;;5002455;28;20163;-85
2024/01/09 00:05:34;;;;;;;1013.22;908.95;;;-2.70;99.90;;;;;;4984891;28;20382;-85
2024/01/09 00:07:59;;;;;;;1108.88;956.03;;;-2.70;99.90;;;;;;5017749;28;20375;-85
2024/01/09 00:10:26;;;;;;;1167.00;959.67;;;-3.00;99.90;;;;;;5018346;28;20046;-84
2024/01/09 00:12:52;;;;;;;1149.10;963.97;;;-2.40;99.90;;;;;;5004183;28;20482;-84
2024/01/09 00:15:18;;;;;;;1041.00;931.08;;;-2.40;99.90;;;;;;4988228;28;20076;-85
2024/01/09 00:17:44;;;;;;;1027.32;920.13;;;-3.10;99.90;;;;;;4998666;28;20480;-85
2024/01/09 00:20:10;;;;;;;996.75;894.95;;;-2.80;99.90;;;;;;4967868;28;20492;-85
2024/01/09 00:22:36;;;;;;;1256.78;990.83;;;-3.10;99.90;;;;;;4977498;28;20050;-85
2024/01/09 00:25:02;;;;;;;1106.20;947.17;;;-2.20;99.90;;;;;;5018010;28;20122;-84
2024/01/09 00:27:28;;;;;;;1193.82;974.28;;;-3.20;99.90;;;;;;5035778;28;20042;-85
2024/01/09 00:29:53;;;;;;;1034.22;924.17;;;-1.80;99.90;;;;;;5020928;28;20061;-84
2024/01/09 00:32:19;;;;;;;1099.18;952.97;;;-1.90;99.90;;;;;;4992932;28;20449;-84
2024/01/09 00:34:45;;;;;;;1232.57;988.90;;;-2.00;99.90;;;;;;4984249;28;20045;-84
2024/01/09 00:37:11;;;;;;;1279.75;990.72;;;-1.80;99.90;;;;;;4965075;28;20046;-84
2024/01/09 00:39:37;;;;;;;1293.13;982.33;;;-2.70;99.90;;;;;;5003139;28;20133;-84
2024/01/09 00:42:03;;;;;;;1058.30;933.70;;;-2.80;99.90;;;;;;5004318;28;20289;-84
2024/01/09 00:44:29;;;;;;;1012.17;909.50;;;-3.30;99.90;;;;;;4998305;28;20405;-84
2024/01/09 00:46:54;;;;;;;1258.30;989.95;;;-3.00;99.90;;;;;;4984325;28;20064;-84
2024/01/09 00:49:20;;;;;;;1451.10;999.80;;;-2.30;99.90;;;;;;5009345;28;20045;-84
2024/01/09 00:51:46;;;;;;;1210.32;990.00;;;-2.50;99.90;;;;;;5018638;28;20614;-84
2024/01/09 00:54:11;;;;;;;1283.13;996.45;;;-3.40;99.90;;;;;;5003494;28;20124;-85
2024/01/09 00:56:37;;;;;;;1409.07;999.90;;;-2.90;99.90;;;;;;5019752;28;20077;-84
2024/01/09 00:59:03;;;;;;;1144.22;977.92;;;-2.10;99.90;;;;;;5020590;28;20057;-85
2024/01/09 01:01:28;;;;;;;1309.45;998.13;;;-2.90;99.90;;;;;;5035374;28;20129;-85
2024/01/09 01:03:54;;;;;;;1495.45;999.90;;;-3.40;99.90;;;;;;5036577;28;20044;-85
2024/01/09 01:06:20;;;;;;;1287.13;988.22;;;-3.00;99.90;;;;;;5035893;28;20057;-84
2024/01/09 01:08:45;;;;;;;1134.05;980.15;;;-2.10;99.90;;;;;;4993857;28;20125;-85
2024/01/09 01:11:11;;;;;;;1167.93;982.47;;;-2.90;99.90;;;;;;5030335;28;20046;-84
2024/01/09 01:13:37;;;;;;;1151.90;966.42;;;-2.20;99.90;;;;;;5019583;28;20046;-85
2024/01/09 01:16:03;;;;;;;1118.15;976.42;;;-3.50;99.90;;;;;;5018649;28;20036;-85
2024/01/09 01:18:28;;;;;;;1283.95;995.38;;;-3.50;99.90;;;;;;5019459;28;20050;-85
2024/01/09 01:20:54;;;;;;;1048.22;933.35;;;-2.50;99.90;;;;;;5018495;28;20083;-85
2024/01/09 01:23:20;;;;;;;1196.63;984.72;;;-2.50;99.90;;;;;;4999062;28;20084;-85
2024/01/09 01:25:45;;;;;;;1312.95;998.38;;;-2.30;99.90;;;;;;4966127;28;20438;-85
2024/01/09 01:28:11;;;;;;;1363.95;999.90;;;-2.30;99.90;;;;;;4986820;28;20082;-85
2024/01/09 01:30:37;;;;;;;1454.57;999.90;;;-2.20;99.90;;;;;;5035256;28;20049;-85
2024/01/09 01:33:03;;;;;;;1443.50;999.90;;;-3.60;99.90;;;;;;4976712;28;20070;-85
2024/01/09 01:35:29;;;;;;;1470.38;999.90;;;-2.40;99.90;;;;;;5020043;28;20107;-85
2024/01/09 01:37:55;;;;;;;1647.15;999.90;;;-2.70;99.90;;;;;;5011128;28;20050;-85
2024/01/09 01:40:20;;;;;;;1245.95;991.10;;;-3.60;99.90;;;;;;5013566;28;20042;-85
2024/01/09 01:42:46;;;;;;;1467.30;999.90;;;-3.40;99.90;;;;;;5019755;28;20073;-85
2024/01/09 01:45:16;;;;;;;1487.93;999.90;;;-2.70;99.90;;;;;;4985007;28;20508;-85
2024/01/09 01:47:45;;;;;;;1351.30;999.90;;;-2.20;99.90;;;;;;4977732;28;20042;-85
2024/01/09 01:50:11;;;;;;;1291.95;994.03;;;-3.60;99.90;;;;;;4966865;28;20046;-85
2024/01/09 01:52:37;;;;;;;1461.55;999.90;;;-3.70;99.90;;;;;;4967391;28;20054;-85
2024/01/09 01:55:04;;;;;;;1264.78;991.35;;;-3.70;99.90;;;;;;4969007;28;20112;-85
2024/01/09 01:57:29;;;;;;;1597.30;999.90;;;-3.70;99.90;;;;;;4966518;28;20055;-85
2024/01/09 01:59:57;;;;;;;1201.28;982.45;;;-3.20;99.90;;;;;;5005158;28;20053;-85
2024/01/09 02:02:25;;;;;;;1442.32;999.90;;;-2.50;99.90;;;;;;5018298;28;20145;-84
2024/01/09 02:04:51;;;;;;;1612.88;999.90;;;-3.20;99.90;;;;;;5003097;28;20100;-85
2024/01/09 02:07:16;;;;;;;1408.57;999.90;;;-2.60;99.90;;;;;;5017564;28;20501;-85
2024/01/09 02:09:42;;;;;;;1342.50;997.30;;;-3.80;99.90;;;;;;4993914;28;20053;-85
2024/01/09 02:12:08;;;;;;;1495.38;999.90;;;-2.40;99.90;;;;;;4985214;28;20046;-85
2024/01/09 02:14:34;;;;;;;1626.28;999.90;;;-3.80;99.90;;;;;;4986073;28;20055;-85
2024/01/09 02:17:00;;;;;;;1706.82;999.90;;;-3.80;99.90;;;;;;4986199;28;20164;-84
2024/01/09 02:19:26;;;;;;;1507.55;999.90;;;-3.30;99.90;;;;;;5027949;28;20534;-85
2024/01/09 02:21:51;;;;;;;1613.82;999.90;;;-3.80;99.90;;;;;;4999157;28;20552;-85
2024/01/09 02:24:18;;;;;;;1578.25;999.90;;;-3.50;99.90;;;;;;5000309;28;20096;-85
2024/01/09 02:26:57;;;;;;;1657.70;999.90;;;-3.30;99.90;;;;;;4967215;28;20448;-85
2024/01/09 02:29:24;;;;;;;1673.90;999.90;;;-3.60;99.90;;;;;;4986475;28;20844;-85
2024/01/09 02:31:50;;;;;;;1786.15;999.90;;;-3.90;99.90;;;;;;5018610;28;20694;-85
2024/01/09 02:34:17;;;;;;;1858.20;999.90;;;-3.90;99.90;;;;;;5001878;28;20114;-85
2024/01/09 02:36:43;;;;;;;1784.65;999.90;;;-3.90;99.90;;;;;;4985903;28;20049;-84
2024/01/09 02:39:08;;;;;;;1758.10;999.90;;;-3.90;99.90;;;;;;5035214;28;20710;-85
2024/01/09 02:41:37;;;;;;;1534.47;999.90;;;-3.10;99.90;;;;;;5017615;28;20091;-85
2024/01/09 02:44:04;;;;;;;1452.15;999.90;;;-4.00;99.90;;;;;;4986442;28;20046;-85
2024/01/09 02:46:29;;;;;;;1719.05;999.90;;;-4.00;99.90;;;;;;4984308;28;20073;-85
2024/01/09 02:48:55;;;;;;;1877.05;999.90;;;-2.80;99.90;;;;;;5009521;28;20026;-85
2024/01/09 02:51:21;;;;;;;1728.32;999.90;;;-2.80;99.90;;;;;;5007913;28;20509;-86
2024/01/09 02:53:47;;;;;;;1849.43;999.90;;;-3.10;99.90;;;;;;5014692;28;20038;-85
2024/01/09 02:56:14;;;;;;;1778.05;999.90;;;-4.10;99.90;;;;;;5017032;28;20136;-85
2024/01/09 02:58:39;;;;;;;1555.25;999.90;;;-3.40;99.90;;;;;;4966602;28;20049;-86
2024/01/09 03:01:06;;;;;;;1516.68;999.90;;;-4.10;99.90;;;;;;4984058;28;20046;-84
2024/01/09 03:03:32;;;;;;;1366.40;997.90;;;-4.10;99.90;;;;;;4989095;28;20363;-85
2024/01/09 03:05:58;;;;;;;1456.97;999.90;;;-2.80;99.90;;;;;;5037450;28;20569;-85
2024/01/09 03:08:23;;;;;;;1516.63;999.90;;;-4.10;99.90;;;;;;5019208;28;20368;-85
2024/01/09 03:10:49;;;;;;;1494.43;999.90;;;-3.10;99.90;;;;;;5002366;28;20058;-85
2024/01/09 03:13:15;;;;;;;1509.55;999.90;;;-4.10;99.90;;;;;;5001940;28;20652;-85
2024/01/09 03:15:40;;;;;;;1644.53;999.90;;;-3.30;99.90;;;;;;4988507;28;20041;-86
2024/01/09 03:18:06;;;;;;;1909.15;999.90;;;-3.40;99.90;;;;;;5020609;28;20500;-85
2024/01/09 03:20:32;;;;;;;1745.95;999.90;;;-3.50;99.90;;;;;;5021643;28;20165;-85
2024/01/09 03:22:57;;;;;;;1875.15;999.90;;;-4.20;99.90;;;;;;5018852;28;20129;-86
2024/01/09 03:25:26;;;;;;;1802.95;999.90;;;-3.90;99.90;;;;;;4988619;28;20049;-86
2024/01/09 03:27:55;;;;;;;1699.68;999.90;;;-3.20;99.90;;;;;;5020500;28;20070;-85
2024/01/09 03:30:21;;;;;;;1845.30;999.90;;;-4.30;99.90;;;;;;5004311;28;20075;-85
2024/01/09 03:32:47;;;;;;;1919.10;999.90;;;-4.30;99.90;;;;;;4988364;28;20130;-86
2024/01/09 03:35:12;;;;;;;1912.15;999.90;;;-4.30;99.90;;;;;;5021567;28;20077;-85
2024/01/09 03:37:38;;;;;;;1975.45;999.90;;;-4.30;99.90;;;;;;5019865;28;20046;-86
2024/01/09 03:40:04;;;;;;;1999.90;999.90;;;-4.30;99.90;;;;;;5021505;28;20050;-86
2024/01/09 03:42:30;;;;;;;1931.72;999.90;;;-4.30;99.90;;;;;;4988096;28;20085;-85
2024/01/09 03:44:56;;;;;;;1897.13;999.90;;;-3.60;99.90;;;;;;5020951;28;20077;-85
2024/01/09 03:47:21;;;;;;;1783.93;999.90;;;-3.20;99.90;;;;;;5027290;28;20050;-85
2024/01/09 03:49:47;;;;;;;1766.65;999.90;;;-3.40;99.90;;;;;;4997347;28;20054;-86
2024/01/09 03:52:13;;;;;;;1930.95;999.90;;;-3.40;99.90;;;;;;5020526;28;20042;-86
2024/01/09 03:54:39;;;;;;;1938.53;999.90;;;-3.50;99.90;;;;;;5005040;28;20228;-86
2024/01/09 03:57:05;;;;;;;1999.90;999.90;;;-4.40;99.90;;;;;;5007732;28;20451;-86
2024/01/09 03:59:30;;;;;;;1949.72;999.90;;;-3.60;99.90;;;;;;4988139;28;20046;-86
2024/01/09 04:01:56;;;;;;;1766.00;999.90;;;-4.40;99.90;;;;;;5016264;28;20049;-85
2024/01/09 04:04:22;;;;;;;1919.47;999.90;;;-4.40;99.90;;;;;;5000862;28;20464;-85
2024/01/09 04:06:48;;;;;;;1962.18;999.90;;;-3.30;99.90;;;;;;5006572;28;20106;-85
2024/01/09 04:09:14;;;;;;;1869.85;999.90;;;-4.40;99.90;;;;;;5001286;28;20045;-85
2024/01/09 04:11:43;;;;;;;1895.05;999.90;;;-3.40;99.90;;;;;;4999604;28;20050;-86
2024/01/09 04:14:09;;;;;;;1977.55;999.90;;;-4.40;99.90;;;;;;4970156;28;20046;-86
2024/01/09 04:16:35;;;;;;;1566.93;999.90;;;-3.10;99.90;;;;;;5003774;28;20049;-86
2024/01/09 04:19:01;;;;;;;1893.20;999.90;;;-3.90;99.90;;;;;;5021348;28;20121;-86
2024/01/09 04:21:26;;;;;;;1791.65;999.90;;;-3.60;99.90;;;;;;5036335;28;20050;-86
2024/01/09 04:23:52;;;;;;;1776.28;999.90;;;-3.60;99.90;;;;;;5020279;28;20053;-86
2024/01/09 04:26:18;;;;;;;1984.65;999.90;;;-3.00;99.90;;;;;;5020445;28;20584;-86
2024/01/09 04:28:43;;;;;;;1832.15;999.90;;;-3.70;99.90;;;;;;5020813;28;20124;-86
2024/01/09 04:31:09;;;;;;;1815.25;999.90;;;-4.60;99.90;;;;;;5011795;28;20595;-86
2024/01/09 04:33:35;;;;;;;1665.10;999.90;;;-4.50;99.90;;;;;;5011059;28;20149;-86
2024/01/09 04:36:00;;;;;;;1809.03;999.90;;;-4.20;99.90;;;;;;5021358;28;20034;-86
2024/01/09 04:38:26;;;;;;;1752.30;999.90;;;-3.80;99.90;;;;;;5013427;28;20074;-86
2024/01/09 04:40:52;;;;;;;1878.82;999.90;;;-4.60;99.90;;;;;;5000983;28;20053;-86
2024/01/09 04:43:18;;;;;;;1987.90;999.90;;;-3.90;99.90;;;;;;5004753;28;20406;-87
2024/01/09 04:45:44;;;;;;;1942.82;999.90;;;-4.60;99.90;;;;;;5020726;28;20046;-86
2024/01/09 04:48:09;;;;;;;1952.85;999.90;;;-3.80;99.90;;;;;;5019784;28;20058;-86
2024/01/09 04:50:35;;;;;;;1999.90;999.90;;;-4.60;99.90;;;;;;5017755;28;20046;-86
2024/01/09 04:53:01;;;;;;;1999.90;999.90;;;-4.70;99.90;;;;;;5000339;28;20125;-86
2024/01/09 04:55:26;;;;;;;1931.95;999.90;;;-4.60;99.90;;;;;;5001169;28;20050;-86
2024/01/09 04:57:52;;;;;;;1780.78;999.90;;;-4.70;99.90;;;;;;5001527;28;20184;-87
2024/01/09 05:00:19;;;;;;;1958.18;999.90;;;-4.70;99.90;;;;;;4964533;28;20486;-86
2024/01/09 05:02:45;;;;;;;1979.95;999.90;;;-4.70;99.90;;;;;;4987675;28;20053;-86
2024/01/09 05:05:11;;;;;;;1979.22;999.90;;;-3.80;99.90;;;;;;4970210;28;20050;-86
2024/01/09 05:07:36;;;;;;;1999.90;999.90;;;-4.70;99.90;;;;;;4983852;28;20348;-85
2024/01/09 05:10:04;;;;;;;1999.90;999.90;;;-4.10;99.90;;;;;;4985124;28;20086;-85
2024/01/09 05:12:30;;;;;;;1999.90;999.90;;;-4.70;99.90;;;;;;4982555;28;20045;-86
2024/01/09 05:14:55;;;;;;;1893.13;999.90;;;-4.70;99.90;;;;;;5004170;28;20050;-86
2024/01/09 05:17:21;;;;;;;1885.47;999.90;;;-3.60;99.90;;;;;;5020108;28;20163;-86
2024/01/09 05:19:46;;;;;;;1999.90;999.90;;;-4.70;99.90;;;;;;5020578;28;20561;-85
2024/01/09 05:22:13;;;;;;;1999.90;999.90;;;-4.80;99.90;;;;;;5016807;28;20076;-86
2024/01/09 05:24:38;;;;;;;1999.90;999.90;;;-4.80;99.90;;;;;;5003714;28;20054;-87
2024/01/09 05:27:04;;;;;;;1952.60;999.90;;;-4.80;99.90;;;;;;5019910;28;20041;-87
2024/01/09 05:29:30;;;;;;;1950.97;999.90;;;-4.50;99.90;;;;;;5018744;28;20501;-86
2024/01/09 05:31:55;;;;;;;1999.90;999.90;;;-3.40;99.90;;;;;;5036255;28;20133;-86
2024/01/09 05:34:21;;;;;;;1945.28;999.90;;;-4.10;99.90;;;;;;5024370;28;20125;-86
2024/01/09 05:36:48;;;;;;;1879.65;999.90;;;-4.00;99.90;;;;;;5017394;28;20045;-86
2024/01/09 05:39:14;;;;;;;1947.25;999.90;;;-4.30;99.90;;;;;;5020311;28;20050;-86
2024/01/09 05:41:40;;;;;;;1970.07;999.90;;;-4.20;99.90;;;;;;5019222;28;20374;-86
2024/01/09 05:44:06;;;;;;;1857.97;999.90;;;-3.90;99.90;;;;;;5020090;28;20687;-86
2024/01/09 05:46:31;;;;;;;1855.78;999.90;;;-4.90;99.90;;;;;;5020361;28;20420;-86
2024/01/09 05:48:57;;;;;;;1860.38;999.90;;;-4.20;99.90;;;;;;4989504;28;20084;-86
2024/01/09 05:51:23;;;;;;;1846.78;999.90;;;-3.80;99.90;;;;;;5000023;28;20050;-86
2024/01/09 05:53:48;;;;;;;1731.32;999.90;;;-4.50;99.90;;;;;;4999673;28;20049;-86
2024/01/09 05:56:14;;;;;;;1771.20;999.90;;;-4.70;99.90;;;;;;4999968;28;20046;-86
2024/01/09 05:58:40;;;;;;;1895.82;999.90;;;-4.30;99.90;;;;;;5012833;28;20046;-86
2024/01/09 06:01:06;;;;;;;1801.10;999.90;;;-4.20;99.90;;;;;;4968848;28;20057;-86
2024/01/09 06:03:31;;;;;;;1689.55;999.90;;;-5.00;99.90;;;;;;4999912;28;20069;-86
2024/01/09 06:05:57;;;;;;;1788.90;999.90;;;-4.00;99.90;;;;;;5000540;28;20046;-87
2024/01/09 06:08:24;;;;;;;1923.28;999.90;;;-4.90;99.90;;;;;;5029689;28;20096;-87
2024/01/09 06:10:49;;;;;;;1931.25;999.90;;;-5.00;99.90;;;;;;4979612;28;20673;-86
2024/01/09 06:13:15;;;;;;;1804.28;999.90;;;-5.00;99.90;;;;;;5036691;28;20038;-87
2024/01/09 06:15:41;;;;;;;1658.95;999.90;;;-4.20;99.90;;;;;;4987344;28;20474;-86
2024/01/09 06:18:07;;;;;;;1719.38;999.90;;;-3.60;99.90;;;;;;5001891;28;20176;-87
2024/01/09 06:20:33;;;;;;;1711.18;999.90;;;-5.00;99.90;;;;;;5000479;28;20129;-86
2024/01/09 06:22:58;;;;;;;1837.70;999.90;;;-4.90;99.90;;;;;;4986808;28;20056;-86
2024/01/09 06:25:24;;;;;;;1665.40;999.90;;;-4.90;99.90;;;;;;5016147;28;20058;-86
2024/01/09 06:27:50;;;;;;;1831.97;999.90;;;-4.10;99.90;;;;;;5013102;28;20046;-86
2024/01/09 06:30:16;;;;;;;1635.60;999.90;;;-4.70;99.90;;;;;;4986611;28;20042;-87
2024/01/09 06:32:42;;;;;;;1710.80;999.90;;;-5.00;99.90;;;;;;4973291;28;20996;-87
2024/01/09 06:35:08;;;;;;;1815.53;999.90;;;-4.80;99.90;;;;;;4996957;28;20050;-85
2024/01/09 06:37:34;;;;;;;1676.25;999.90;;;-5.00;99.90;;;;;;4976479;28;20041;-85
2024/01/09 06:39:59;;;;;;;1787.13;999.90;;;-5.10;99.90;;;;;;5006891;28;20068;-86
2024/01/09 06:42:26;;;;;;;1629.70;999.90;;;-5.00;99.90;;;;;;5006018;28;20156;-86
2024/01/09 06:44:52;;;;;;;1741.22;999.90;;;-4.10;99.90;;;;;;5017364;28;20133;-84
2024/01/09 06:47:17;;;;;;;1752.53;999.90;;;-5.00;99.90;;;;;;4993765;28;20195;-86
2024/01/09 06:49:43;;;;;;;1684.45;999.90;;;-5.10;99.90;;;;;;4994360;28;20066;-87
2024/01/09 06:52:09;;;;;;;1654.60;999.90;;;-5.10;99.90;;;;;;4987325;28;20053;-87
2024/01/09 06:54:35;;;;;;;1712.50;999.90;;;-5.10;99.90;;;;;;5008797;28;20470;-87
2024/01/09 06:57:01;;;;;;;1745.20;999.90;;;-4.30;99.90;;;;;;5022931;28;20449;-87
2024/01/09 06:59:26;;;;;;;1594.57;999.90;;;-5.20;99.90;;;;;;5020469;28;20042;-87
2024/01/09 07:01:52;;;;;;;1681.00;999.90;;;-5.20;99.90;;;;;;5020344;28;20041;-86
2024/01/09 07:04:18;;;;;;;1696.25;999.90;;;-3.90;99.90;;;;;;5023964;28;20042;-85
2024/01/09 07:06:44;;;;;;;1791.90;999.90;;;-4.50;99.90;;;;;;5018471;28;20663;-86
2024/01/09 07:09:10;;;;;;;1597.28;999.90;;;-5.10;99.90;;;;;;4980597;28;20138;-86
2024/01/09 07:11:35;;;;;;;1721.78;999.90;;;-5.20;99.90;;;;;;4993288;28;20058;-88
2024/01/09 07:14:01;;;;;;;1576.50;999.90;;;-5.20;99.90;;;;;;5031282;28;20052;-86
2024/01/09 07:16:27;;;;;;;1538.72;999.90;;;-5.20;99.90;;;;;;5034101;28;20577;-86
2024/01/09 07:18:53;;;;;;;1629.22;999.90;;;-4.90;99.90;;;;;;5015604;28;20034;-86
2024/01/09 07:21:18;;;;;;;1631.50;999.90;;;-5.20;99.90;;;;;;5003155;28;20038;-87
2024/01/09 07:23:46;;;;;;;1781.43;999.90;;;-5.20;99.90;;;;;;5003352;28;20054;-87
2024/01/09 07:26:12;;;;;;;1789.85;999.90;;;-5.10;99.90;;;;;;5013037;28;20102;-87
2024/01/09 07:28:38;;;;;;;1616.57;999.90;;;-3.80;99.90;;;;;;4992680;28;20050;-87
2024/01/09 07:31:04;;;;;;;1507.95;999.90;;;-4.30;99.90;;;;;;5003247;28;20038;-88
2024/01/09 07:33:30;;;;;;;1686.43;999.90;;;-5.30;99.90;;;;;;5003059;28;20489;-88
2024/01/09 07:35:55;;;;;;;1728.30;999.90;;;-4.50;99.90;;;;;;5004640;28;20146;-88
2024/01/09 07:38:24;;;;;;;1557.97;999.90;;;-4.60;99.90;;;;;;5002720;28;20132;-87
2024/01/09 07:40:50;;;;;;;1626.72;999.90;;;-4.70;99.90;;;;;;4991734;28;20088;-88
2024/01/09 07:43:16;;;;;;;1519.78;999.90;;;-5.30;99.90;;;;;;4998768;28;20050;-87
2024/01/09 07:45:42;;;;;;;1652.50;999.90;;;-5.30;99.90;;;;;;5027057;28;20444;-86
2024/01/09 07:48:08;;;;;;;1610.82;999.90;;;-4.70;99.90;;;;;;4983460;28;20129;-88
2024/01/09 07:50:33;;;;;;;1651.40;999.90;;;-5.30;99.90;;;;;;5012645;28;20046;-87
2024/01/09 07:52:59;;;;;;;1675.07;999.90;;;-5.40;99.90;;;;;;5029362;28;20050;-88
2024/01/09 07:55:25;;;;;;;1697.68;999.90;;;-5.30;99.90;;;;;;4988852;28;20046;-87
2024/01/09 07:57:51;;;;;;;1644.47;999.90;;;-5.00;99.90;;;;;;4978686;28;20521;-87
2024/01/09 08:00:17;;;;;;;1559.15;999.90;;;-5.30;99.90;;;;;;5003696;28;20074;-87
2024/01/09 08:02:43;;;;;;;1592.97;999.90;;;-5.30;99.90;;;;;;5004955;28;20038;-87
2024/01/09 08:05:08;;;;;;;1716.00;999.90;;;-4.70;99.90;;;;;;5007078;28;20044;-88
2024/01/09 08:07:34;;;;;;;1735.38;999.90;;;-5.30;99.90;;;;;;5003542;28;20489;-87
2024/01/09 08:10:00;;;;;;;1678.20;999.90;;;-5.30;99.90;;;;;;5007241;28;20058;-86
2024/01/09 08:12:26;;;;;;;1733.68;999.90;;;-4.20;99.90;;;;;;4994934;28;20065;-86
2024/01/09 08:14:53;;;;;;;1757.40;999.90;;;-5.30;99.90;;;;;;4956992;28;20402;-86
2024/01/09 08:17:19;;;;;;;1730.72;999.90;;;-4.20;99.90;;;;;;5007278;28;20464;-86
2024/01/09 08:19:45;;;;;;;1749.57;999.90;;;-4.70;99.90;;;;;;4999929;28;20045;-86
2024/01/09 08:22:11;;;;;;;1706.20;999.90;;;-4.40;99.90;;;;;;5012256;28;20069;-87
2024/01/09 08:24:37;;;;;;;1698.72;999.90;;;-5.10;99.90;;;;;;5017567;28;20054;-86
2024/01/09 08:27:03;;;;;;;1731.30;999.90;;;-4.20;99.90;;;;;;5020922;28;20053;-86
2024/01/09 08:29:29;;;;;;;1756.68;999.90;;;-5.10;99.90;;;;;;4992620;28;20057;-85
2024/01/09 08:31:54;;;;;;;1720.45;999.90;;;-5.10;99.90;;;;;;4989979;28;20064;-84
2024/01/09 08:34:20;;;;;;;1789.70;999.90;;;-5.10;99.90;;;;;;4985514;28;20058;-92
2024/01/09 08:36:48;;;;;;;1743.40;999.90;;;-4.20;99.90;;;;;;5006390;28;20453;-86
2024/01/09 08:39:15;;;;;;;1743.53;999.90;;;-4.20;99.90;;;;;;5004170;28;20405;-86
2024/01/09 08:41:41;;;;;;;1588.93;999.90;;;-5.00;99.90;;;;;;4999646;28;20528;-86
2024/01/09 08:44:07;;;;;;;1648.35;999.90;;;-3.70;99.90;;;;;;5001637;28;20042;-86
2024/01/09 08:46:33;;;;;;;1521.85;999.90;;;-4.90;99.90;;;;;;4967795;28;20062;-86
2024/01/09 08:49:00;;;;;;;1374.45;999.90;;;-4.60;99.90;;;;;;4973526;28;20044;-87
2024/01/09 08:51:27;;;;;;;1334.18;999.90;;;;;;;;;;4987422;28;20046;-86
2024/01/09 08:53:55;;;;;;;1458.60;999.90;;;-4.80;99.90;;;;;;4968136;28;20042;-86
2024/01/09 08:56:20;;;;;;;1463.43;999.90;;;-4.80;99.90;;;;;;4976444;28;20053;-86
2024/01/09 08:58:46;;;;;;;1410.82;999.90;;;-3.30;99.90;;;;;;5019591;28;20054;-86
2024/01/09 09:01:12;;;;;;;1311.03;998.17;;;-4.70;99.90;;;;;;5037160;28;20481;-87
2024/01/09 09:03:37;;;;;;;1238.55;995.65;;;-4.70;99.90;;;;;;5019648;28;20132;-86
2024/01/09 09:06:03;;;;;;;1293.38;999.90;;;-4.60;99.90;;;;;;5019021;28;20141;-87
2024/01/09 09:08:30;;;;;;;1234.28;995.60;;;-4.50;99.90;;;;;;4967354;28;20453;-86
2024/01/09 09:10:56;;;;;;;1207.75;993.63;;;-3.30;99.90;;;;;;4984487;28;20516;-86
2024/01/09 09:13:22;;;;;;;1130.20;962.50;;;-3.10;99.90;;;;;;5016702;28;20031;-86
2024/01/09 09:15:49;;;;;;;1243.80;995.72;;;-3.00;99.90;;;;;;4969512;28;20068;-86
2024/01/09 09:18:14;;;;;;;1039.90;925.15;;;-4.40;99.90;;;;;;5014933;28;20121;-87
2024/01/09 09:20:40;;;;;;;1038.35;924.35;;;-4.40;99.90;;;;;;5019540;28;20210;-86
2024/01/09 09:23:06;;;;;;;1032.85;915.75;;;-2.90;99.90;;;;;;5030503;28;20046;-87
2024/01/09 09:25:32;;;;;;;1025.78;917.58;;;-4.30;99.90;;;;;;5011285;28;20053;-86
2024/01/09 09:27:58;;;;;;;946.35;850.35;;;-2.90;99.90;;;;;;5018841;28;20884;-86
2024/01/09 09:30:25;;;;;;;911.33;822.78;;;-4.10;99.90;;;;;;4986447;28;20077;-87
2024/01/09 09:32:51;;;;;;;957.65;859.88;;;-2.90;99.90;;;;;;5003173;28;20046;-87
2024/01/09 09:35:17;;;;;;;984.42;883.10;;;-2.40;99.90;;;;;;5018862;28;20072;-85
2024/01/09 09:37:44;;;;;;;937.72;843.83;;;-4.00;99.90;;;;;;4988383;28;20089;-83
2024/01/09 09:40:12;;;;;;;1002.28;899.05;;;-3.90;99.90;;;;;;4996417;28;20046;-84
2024/01/09 09:42:40;;;;;;;1019.88;911.15;;;-3.80;99.90;;;;;;5008547;28;20516;-85
2024/01/09 09:45:10;;;;;;;906.67;816.92;;;-2.60;99.90;;;;;;4987195;28;20565;-84
2024/01/09 09:47:37;;;;;;;900.78;813.35;;;-3.80;99.90;;;;;;4980140;28;20645;-85
2024/01/09 09:50:04;;;;;;;908.13;821.83;;;-2.80;99.90;;;;;;4967576;28;20038;-85
2024/01/09 09:52:32;;;;;;;896.78;808.15;;;-3.70;99.90;;;;;;4974085;28;20129;-85
2024/01/09 09:54:59;;;;;;;841.70;761.80;;;-3.20;99.90;;;;;;4973130;28;20046;-83
2024/01/09 09:57:25;;;;;;;826.47;750.63;;;-2.30;99.90;;;;;;4966365;28;20501;-84
2024/01/09 09:59:50;;;;;;;898.88;809.92;;;-3.60;99.90;;;;;;4981521;28;20042;-84
2024/01/09 10:02:24;;;;;;;891.40;804.42;;;-2.40;99.90;;;;;;5018561;28;20157;-84
2024/01/09 10:04:52;;;;;;;915.20;824.50;;;-3.50;99.90;;;;;;4985775;28;20046;-85
2024/01/09 10:07:21;;;;;;;951.20;854.25;;;-3.40;99.90;;;;;;4985208;28;20055;-83
2024/01/09 10:09:52;;;;;;;956.22;851.47;;;-2.40;99.90;;;;;;4988196;28;20038;-85
2024/01/09 10:12:22;;;;;;;937.05;841.78;;;-3.20;99.90;;;;;;4989525;28;20084;-83
2024/01/09 10:15:08;;;;;;;857.83;774.97;;;-2.00;99.90;;;;;;4990086;28;20125;-85
2024/01/09 10:17:35;;;;;;;911.13;816.40;;;-3.20;99.90;;;;;;4988829;28;20045;-85
2024/01/09 10:20:03;;;;;;;749.25;681.63;;;-2.10;99.90;;;;;;4990238;28;20034;-85
2024/01/09 10:22:31;;;;;;;740.13;676.03;;;-3.10;99.90;;;;;;4987997;28;20095;-84
2024/01/09 10:24:57;;;;;;;711.35;652.17;;;-1.60;99.90;;;;;;5022620;28;20091;-84
2024/01/09 10:27:23;;;;;;;709.63;650.70;;;-2.00;99.90;;;;;;4989114;28;20050;-84
2024/01/09 10:29:48;;;;;;;763.33;695.90;;;-2.90;99.90;;;;;;5038855;28;20209;-84
2024/01/09 10:32:14;;;;;;;774.25;706.20;;;-2.10;99.90;;;;;;4987800;28;20075;-84
2024/01/09 10:34:40;;;;;;;688.20;631.42;;;-1.60;99.90;;;;;;5006324;28;20091;-85
2024/01/09 10:37:08;;;;;;;745.97;682.00;;;-1.60;99.90;;;;;;5004620;28;20497;-84
2024/01/09 10:39:34;;;;;;;562.08;518.88;;;-2.80;99.90;;;;;;4994943;28;20041;-84
2024/01/09 10:42:09;;;;;;;673.45;618.55;;;-1.30;99.90;;;;;;4982908;28;20069;-84
2024/01/09 10:44:38;;;;;;;585.72;539.63;;;-2.70;99.90;;;;;;4969400;28;20439;-84
2024/01/09 10:47:04;;;;;;;500.35;462.15;;;-2.70;99.90;;;;;;4985102;28;20158;-84
2024/01/09 10:49:31;;;;;;;356.05;330.90;;;-1.40;99.90;;;;;;4979304;28;20038;-84
2024/01/09 10:52:00;;;;;;;517.78;478.73;;;-2.10;99.90;;;;;;4972488;28;20130;-84
2024/01/09 10:54:27;;;;;;;583.35;536.92;;;-1.10;99.90;;;;;;4995867;28;20138;-84
2024/01/09 10:56:54;;;;;;;589.03;543.10;;;-1.80;99.90;;;;;;4989298;28;20405;-84
2024/01/09 10:59:21;;;;;;;525.42;485.52;;;-1.80;99.90;;;;;;5004953;28;20053;-84
2024/01/09 11:01:47;;;;;;;464.92;430.17;;;-1.20;99.90;;;;;;5004395;28;20042;-84
2024/01/09 11:04:12;;;;;;;395.55;367.20;;;-1.40;99.90;;;;;;4989124;28;20110;-85
2024/01/09 11:06:42;;;;;;;479.85;443.65;;;-2.40;99.90;;;;;;4986295;28;20104;-84
2024/01/09 11:09:11;;;;;;;477.80;442.13;;;-1.00;99.90;;;;;;5002191;28;20121;-85
2024/01/09 11:11:38;;;;;;;565.83;522.78;;;-1.20;99.90;;;;;;5005134;28;20086;-85
2024/01/09 11:14:07;;;;;;;515.88;476.63;;;-2.20;99.90;;;;;;4993348;28;20135;-85
2024/01/09 11:16:36;;;;;;;427.75;396.65;;;-1.40;99.90;;;;;;4969325;28;20415;-85
2024/01/09 11:19:04;;;;;;;526.38;486.25;;;-1.00;99.90;;;;;;5001586;28;20056;-85
2024/01/09 11:21:30;;;;;;;475.17;439.33;;;-2.10;99.90;;;;;;5035419;28;20050;-85
2024/01/09 11:23:57;;;;;;;465.10;430.38;;;-1.50;99.90;;;;;;5037624;28;20061;-85
2024/01/09 11:26:27;;;;;;;542.65;500.98;;;-2.30;99.90;;;;;;5004958;28;20142;-86
2024/01/09 11:28:53;;;;;;;603.30;555.58;;;-1.20;99.90;;;;;;4988379;28;20038;-85
2024/01/09 11:31:20;;;;;;;491.70;454.63;;;-0.90;99.90;;;;;;5038410;28;20508;-84
2024/01/09 11:33:51;;;;;;;533.15;493.00;;;-1.70;99.90;;;;;;4999028;28;20406;-84
2024/01/09 11:36:22;;;;;;;546.95;505.08;;;-2.10;99.90;;;;;;4969789;28;20034;-85
2024/01/09 11:38:51;;;;;;;331.45;308.83;;;-1.50;99.90;;;;;;4970125;28;20451;-84
2024/01/09 11:41:16;;;;;;;435.58;404.00;;;-1.60;99.90;;;;;;4998785;28;20046;-84
2024/01/09 11:44:04;;;;;;;447.27;414.60;;;-1.30;99.90;;;;;;5015295;28;20043;-84
2024/01/09 11:46:35;;;;;;;430.02;398.23;;;-2.00;99.90;;;;;;4981101;28;20502;-84
2024/01/09 11:49:02;;;;;;;408.45;379.23;;;-1.90;99.90;;;;;;4990028;28;20179;-83
2024/01/09 11:51:29;;;;;;;416.63;386.52;;;-2.00;99.90;;;;;;4988171;28;20053;-84
2024/01/09 11:54:03;;;;;;;374.58;348.25;;;-2.00;99.90;;;;;;4987110;28;20038;-84
2024/01/09 11:56:28;;;;;;;466.35;431.45;;;-1.50;99.90;;;;;;4987048;28;20496;-84